createdAt,value
2019-02-11T00:01:56.936Z,31.63
2019-02-11T00:04:26.305Z,31.23
2019-02-11T00:06:55.752Z,29.20
2019-02-11T00:09:25.110Z,29.80
2019-02-11T00:11:54.514Z,29.00
2019-02-11T00:14:23.973Z,29.13
2019-02-11T00:16:53.374Z,30.70
2019-02-11T00:19:22.744Z,30.43
2019-02-11T00:21:52.118Z,32.30
2019-02-11T00:24:21.579Z,32.00
2019-02-11T00:26:50.977Z,32.77
2019-02-11T00:29:20.429Z,32.03
2019-02-11T00:31:49.833Z,31.80
2019-02-11T00:34:19.213Z,31.40
2019-02-11T00:36:48.589Z,32.30
2019-02-11T00:39:18.040Z,30.97
2019-02-11T00:41:47.421Z,33.60
2019-02-11T00:44:16.857Z,30.43
2019-02-11T00:46:46.224Z,32.27
2019-02-11T00:49:15.601Z,29.63
2019-02-11T00:51:45.075Z,31.67
2019-02-11T00:54:14.495Z,30.50
2019-02-11T00:56:43.883Z,29.20
2019-02-11T00:59:13.374Z,27.13
2019-02-11T01:01:42.804Z,27.53
2019-02-11T01:04:12.230Z,28.83
2019-02-11T01:06:41.637Z,26.43
2019-02-11T01:09:10.991Z,27.90
2019-02-11T01:11:40.454Z,28.33
2019-02-11T01:14:09.846Z,30.47
2019-02-11T01:16:39.293Z,29.27
2019-02-11T01:19:08.734Z,29.33
2019-02-11T01:21:38.217Z,33.27
2019-02-11T01:24:07.591Z,33.60
2019-02-11T01:26:37.036Z,37.90
2019-02-11T01:29:06.492Z,35.87
2019-02-11T01:31:35.939Z,33.17
2019-02-11T01:34:05.425Z,34.60
2019-02-11T01:36:34.904Z,42.80
2019-02-11T01:39:05.564Z,39.20
2019-02-11T01:41:35.018Z,41.57
2019-02-11T01:44:04.456Z,44.10
2019-02-11T01:46:33.911Z,37.17
2019-02-11T01:49:03.409Z,42.73
2019-02-11T01:51:32.860Z,45.40
2019-02-11T01:54:02.299Z,43.20
2019-02-11T01:56:31.719Z,48.67
2019-02-11T01:59:01.120Z,44.83
2019-02-11T02:01:30.495Z,42.87
2019-02-11T02:03:59.978Z,40.63
2019-02-11T02:06:29.427Z,42.33
2019-02-11T02:08:59.224Z,40.70
2019-02-11T02:11:28.645Z,42.47
2019-02-11T02:13:58.072Z,37.20
2019-02-11T02:16:27.531Z,35.20
2019-02-11T02:18:56.982Z,37.47
2019-02-11T02:21:26.399Z,42.87
2019-02-11T02:23:55.864Z,44.40
2019-02-11T02:26:25.257Z,40.60
2019-02-11T02:28:54.705Z,40.27
2019-02-11T02:31:24.170Z,40.77
2019-02-11T02:33:53.532Z,37.50
2019-02-11T02:36:22.893Z,35.20
2019-02-11T02:38:52.343Z,36.63
2019-02-11T02:41:21.769Z,34.50
2019-02-11T02:43:55.732Z,33.33
2019-02-11T02:46:22.334Z,35.83
2019-02-11T02:48:51.703Z,36.63
2019-02-11T02:51:21.144Z,36.07
2019-02-11T02:53:50.607Z,37.67
2019-02-11T02:56:20.477Z,36.50
2019-02-11T02:58:49.880Z,35.90
2019-02-11T03:01:19.274Z,37.30
2019-02-11T03:03:48.774Z,35.63
2019-02-11T03:06:18.387Z,33.53
2019-02-11T03:08:47.855Z,33.67
2019-02-11T03:11:17.283Z,34.40
2019-02-11T03:13:46.741Z,33.93
2019-02-11T03:16:16.140Z,34.30
2019-02-11T03:18:45.617Z,34.43
2019-02-11T03:21:15.061Z,33.30
2019-02-11T03:23:44.491Z,33.97
2019-02-11T03:26:13.929Z,31.93
2019-02-11T03:28:43.305Z,34.90
2019-02-11T03:31:12.688Z,35.60
2019-02-11T03:33:42.122Z,35.77
2019-02-11T03:36:11.493Z,35.50
2019-02-11T03:38:41.355Z,38.30
2019-02-11T03:41:11.203Z,37.37
2019-02-11T03:43:40.625Z,34.83
2019-02-11T03:46:09.949Z,36.23
2019-02-11T03:48:39.362Z,36.03
2019-02-11T03:51:09.233Z,38.17
2019-02-11T03:53:38.631Z,37.43
2019-02-11T03:56:08.061Z,38.03
2019-02-11T03:58:37.458Z,36.33
2019-02-11T04:01:06.881Z,36.73
2019-02-11T04:03:36.245Z,35.43
2019-02-11T04:06:05.663Z,35.63
2019-02-11T04:08:35.099Z,35.70
2019-02-11T04:11:04.645Z,35.67
2019-02-11T04:13:34.072Z,36.10
2019-02-11T04:16:03.523Z,34.10
2019-02-11T04:18:32.910Z,35.70
2019-02-11T04:21:02.324Z,35.57
2019-02-11T04:23:31.767Z,36.03
2019-02-11T04:26:01.203Z,37.07
2019-02-11T04:28:30.657Z,37.87
2019-02-11T04:31:00.065Z,34.20
2019-02-11T04:33:29.532Z,39.47
2019-02-11T04:35:58.867Z,38.33
2019-02-11T04:38:28.271Z,41.07
2019-02-11T04:40:57.624Z,37.40
2019-02-11T04:43:27.043Z,35.77
2019-02-11T04:45:56.429Z,37.20
2019-02-11T04:48:25.834Z,36.93
2019-02-11T04:50:55.254Z,38.23
2019-02-11T04:53:24.616Z,35.77
2019-02-11T04:55:54.057Z,37.93
2019-02-11T04:58:23.505Z,38.07
2019-02-11T05:00:52.881Z,39.50
2019-02-11T05:03:22.272Z,38.87
2019-02-11T05:05:53.195Z,36.30
2019-02-11T05:08:22.665Z,38.50
2019-02-11T05:10:52.134Z,37.40
2019-02-11T05:13:21.507Z,38.03
2019-02-11T05:15:50.857Z,39.23
2019-02-11T05:18:20.262Z,38.80
2019-02-11T05:20:49.696Z,40.90
2019-02-11T05:23:19.107Z,42.27
2019-02-11T05:25:48.585Z,38.03
2019-02-11T05:28:17.994Z,38.57
2019-02-11T05:30:47.496Z,39.17
2019-02-11T05:33:16.949Z,40.00
2019-02-11T05:35:46.358Z,38.67
2019-02-11T05:38:15.682Z,41.17
2019-02-11T05:40:45.038Z,47.67
2019-02-11T05:43:14.473Z,46.87
2019-02-11T05:45:43.992Z,52.40
2019-02-11T05:48:13.442Z,62.10
2019-02-11T05:50:42.817Z,63.23
2019-02-11T05:53:12.330Z,57.87
2019-02-11T05:55:41.710Z,61.23
2019-02-11T05:58:11.479Z,67.93
2019-02-11T06:00:40.848Z,52.93
2019-02-11T06:03:10.255Z,49.13
2019-02-11T06:05:40.641Z,52.07
2019-02-11T06:08:10.029Z,52.60
2019-02-11T06:10:39.441Z,50.00
2019-02-11T06:13:08.823Z,48.07
2019-02-11T06:15:38.184Z,49.43
2019-02-11T06:18:07.639Z,50.93
2019-02-11T06:20:37.015Z,53.07
2019-02-11T06:23:06.460Z,51.87
2019-02-11T06:25:35.869Z,54.87
2019-02-11T06:28:05.227Z,53.77
2019-02-11T06:30:34.674Z,52.60
2019-02-11T06:33:04.038Z,53.93
2019-02-11T06:35:33.894Z,56.60
2019-02-11T06:38:03.317Z,58.57
2019-02-11T06:40:32.851Z,55.40
2019-02-11T06:43:02.189Z,60.00
2019-02-11T06:45:31.580Z,66.13
2019-02-11T06:48:01.008Z,57.67
2019-02-11T06:50:30.405Z,63.47
2019-02-11T06:52:59.965Z,62.90
2019-02-11T06:55:29.533Z,72.23
2019-02-11T06:57:58.873Z,72.77
2019-02-11T07:00:28.720Z,67.70
2019-02-11T07:02:58.125Z,65.33
2019-02-11T07:05:27.537Z,60.20
2019-02-11T07:07:57.085Z,66.97
2019-02-11T07:10:26.477Z,61.27
2019-02-11T07:12:55.963Z,69.27
2019-02-11T07:15:25.331Z,74.43
2019-02-11T07:17:54.829Z,86.40
2019-02-11T07:20:24.194Z,85.23
2019-02-11T07:22:53.666Z,94.37
2019-02-11T07:25:23.099Z,110.73
2019-02-11T07:27:52.559Z,85.37
2019-02-11T07:30:22.031Z,92.30
2019-02-11T07:32:51.408Z,102.97
2019-02-11T07:35:20.844Z,96.30
2019-02-11T07:37:50.307Z,101.93
2019-02-11T07:40:20.032Z,101.70
2019-02-11T07:42:59.709Z,66.37
2019-02-11T07:45:37.634Z,83.13
2019-02-11T07:48:07.037Z,83.57
2019-02-11T07:50:36.432Z,85.23
2019-02-11T07:53:05.869Z,83.47
2019-02-11T07:55:35.234Z,78.37
2019-02-11T07:58:04.628Z,77.50
2019-02-11T08:00:34.166Z,64.63
2019-02-11T08:03:03.541Z,62.37
2019-02-11T08:05:33.004Z,53.27
2019-02-11T08:08:02.440Z,56.57
2019-02-11T08:10:31.879Z,43.07
2019-02-11T08:13:01.314Z,45.90
2019-02-11T08:15:38.234Z,46.27
2019-02-11T08:18:01.831Z,44.70
2019-02-11T08:20:31.201Z,43.57
2019-02-11T08:23:00.616Z,45.13
2019-02-11T08:25:30.125Z,47.17
2019-02-11T08:27:59.617Z,44.00
2019-02-11T08:30:29.078Z,42.10
2019-02-11T08:32:58.455Z,42.37
2019-02-11T08:35:29.077Z,38.97
2019-02-11T08:37:58.683Z,34.03
2019-02-11T08:40:28.102Z,37.73
2019-02-11T08:42:57.556Z,33.70
2019-02-11T08:45:26.941Z,33.97
2019-02-11T08:47:57.634Z,34.97
2019-02-11T08:50:27.039Z,42.23
2019-02-11T08:52:56.452Z,48.50
2019-02-11T08:55:25.912Z,48.50
2019-02-11T08:57:55.294Z,45.60
2019-02-11T09:00:24.735Z,46.63
2019-02-11T09:02:54.088Z,49.13
2019-02-11T09:05:23.478Z,44.30
2019-02-11T09:07:52.938Z,41.07
2019-02-11T09:10:22.364Z,33.73
2019-02-11T09:12:51.788Z,32.40
2019-02-11T09:15:21.291Z,32.43
2019-02-11T09:17:50.689Z,28.87
2019-02-11T09:20:20.050Z,26.90
2019-02-11T09:22:49.577Z,27.60
2019-02-11T09:25:19.064Z,25.73
2019-02-11T09:27:48.485Z,27.07
2019-02-11T09:30:17.962Z,31.20
2019-02-11T09:32:47.806Z,30.23
2019-02-11T09:35:17.215Z,37.47
2019-02-11T09:37:46.550Z,35.27
2019-02-11T09:40:16.809Z,34.83
2019-02-11T09:42:46.212Z,34.07
2019-02-11T09:45:18.505Z,32.40
2019-02-11T09:47:47.892Z,32.87
2019-02-11T09:50:23.206Z,33.27
2019-02-11T09:52:52.559Z,31.67
2019-02-11T09:55:27.414Z,31.07
2019-02-11T09:57:56.843Z,31.33
2019-02-11T10:00:26.717Z,30.47
2019-02-11T10:02:56.092Z,28.97
2019-02-11T10:05:25.995Z,28.83
2019-02-11T10:07:55.460Z,30.73
2019-02-11T10:10:24.809Z,30.03
2019-02-11T10:12:54.357Z,30.90
2019-02-11T10:15:23.864Z,27.47
2019-02-11T10:17:53.819Z,29.13
2019-02-11T10:20:23.271Z,29.33
2019-02-11T10:22:52.676Z,30.23
2019-02-11T10:25:23.894Z,28.03
2019-02-11T10:27:54.718Z,28.73
2019-02-11T10:30:24.517Z,29.90
2019-02-11T10:32:53.945Z,28.30
2019-02-11T10:35:23.303Z,28.20
2019-02-11T10:37:52.682Z,28.70
2019-02-11T10:40:22.051Z,29.23
2019-02-11T10:42:51.460Z,30.00
2019-02-11T10:45:20.820Z,28.80
2019-02-11T10:47:50.468Z,29.60
2019-02-11T10:50:20.068Z,30.20
2019-02-11T10:52:49.489Z,29.93
2019-02-11T10:55:18.927Z,29.63
2019-02-11T11:01:27.585Z,29.17
2019-02-11T11:03:56.978Z,29.37
2019-02-11T11:06:26.446Z,29.63
2019-02-11T11:08:55.883Z,27.50
2019-02-11T11:11:25.354Z,30.57
2019-02-11T11:13:54.784Z,28.17
2019-02-11T11:16:29.344Z,28.10
2019-02-11T11:18:55.380Z,27.50
2019-02-11T11:21:34.438Z,28.10
2019-02-11T11:24:03.865Z,27.23
2019-02-11T11:26:33.330Z,27.37
2019-02-11T11:29:02.906Z,26.70
2019-02-11T11:31:32.360Z,28.43
2019-02-11T11:34:01.872Z,27.43
2019-02-11T11:36:31.313Z,28.47
2019-02-11T11:39:00.791Z,26.80
2019-02-11T11:41:30.579Z,26.00
2019-02-11T11:43:59.999Z,24.13
2019-02-11T11:46:38.523Z,24.43
2019-02-11T11:49:02.943Z,26.63
2019-02-11T11:51:32.360Z,26.63
2019-02-11T11:54:01.818Z,27.50
2019-02-11T11:56:31.259Z,26.63
2019-02-11T11:59:00.806Z,26.53
2019-02-11T12:01:30.193Z,27.37
2019-02-11T12:03:59.587Z,29.27
2019-02-11T12:06:29.115Z,29.30
2019-02-11T12:08:59.385Z,25.70
2019-02-11T12:11:29.149Z,26.37
2019-02-11T12:13:58.544Z,27.27
2019-02-11T12:16:27.939Z,26.23
2019-02-11T12:18:57.353Z,28.70
2019-02-11T12:21:26.840Z,26.13
2019-02-11T12:23:56.276Z,26.37
2019-02-11T12:26:25.655Z,25.80
2019-02-11T12:28:55.193Z,25.27
2019-02-11T12:31:24.592Z,28.77
2019-02-11T12:33:54.023Z,26.67
2019-02-11T12:36:23.497Z,34.07
2019-02-11T12:38:52.920Z,37.93
2019-02-11T12:41:22.373Z,40.17
2019-02-11T12:43:51.733Z,36.97
2019-02-11T12:46:23.256Z,30.33
2019-02-11T12:48:52.301Z,27.60
2019-02-11T12:51:21.669Z,24.40
2019-02-11T12:53:51.091Z,23.47
2019-02-11T12:56:20.464Z,23.33
2019-02-11T12:58:49.836Z,20.03
2019-02-11T13:01:19.175Z,22.23
2019-02-11T13:03:48.777Z,23.53
2019-02-11T13:06:18.190Z,21.33
2019-02-11T13:08:47.691Z,19.10
2019-02-11T13:11:17.189Z,19.27
2019-02-11T13:13:46.669Z,20.40
2019-02-11T13:16:16.113Z,20.50
2019-02-11T13:18:45.555Z,20.50
2019-02-11T13:21:15.355Z,22.00
2019-02-11T13:23:44.872Z,23.77
2019-02-11T13:26:14.304Z,23.27
2019-02-11T13:28:43.644Z,24.37
2019-02-11T13:31:13.023Z,22.80
2019-02-11T13:33:42.522Z,16.03
2019-02-11T13:36:12.021Z,18.17
2019-02-11T13:38:41.785Z,16.27
2019-02-11T13:41:11.248Z,17.10
2019-02-11T13:43:40.733Z,18.23
2019-02-11T13:46:10.219Z,20.03
2019-02-11T13:48:39.633Z,20.33
2019-02-11T13:51:09.021Z,24.17
2019-02-11T13:53:38.331Z,23.27
2019-02-11T13:56:07.842Z,27.20
2019-02-11T13:58:37.240Z,25.20
2019-02-11T14:01:09.822Z,28.90
2019-02-11T14:03:39.243Z,29.87
2019-02-11T14:06:08.799Z,29.33
2019-02-11T14:08:38.354Z,31.57
2019-02-11T14:11:08.034Z,27.20
2019-02-11T14:13:37.420Z,23.70
2019-02-11T14:16:06.864Z,25.67
2019-02-11T14:18:36.228Z,27.50
2019-02-11T14:21:06.191Z,22.20
2019-02-11T14:23:35.638Z,23.20
2019-02-11T14:26:05.073Z,21.63
2019-02-11T14:28:34.418Z,23.13
2019-02-11T14:31:03.843Z,21.37
2019-02-11T14:33:33.289Z,21.87
2019-02-11T14:36:05.382Z,22.37
2019-02-11T14:38:33.728Z,23.07
2019-02-11T14:41:03.117Z,22.90
2019-02-11T14:43:32.492Z,22.60
2019-02-11T14:46:01.979Z,21.30
2019-02-11T14:48:31.336Z,24.60
2019-02-11T14:51:00.743Z,23.23
2019-02-11T14:53:30.142Z,21.83
2019-02-11T14:55:59.466Z,21.03
2019-02-11T14:58:28.835Z,21.83
2019-02-11T15:00:58.210Z,23.57
2019-02-11T15:03:27.631Z,21.70
2019-02-11T15:05:57.010Z,22.57
2019-02-11T15:08:26.418Z,23.50
2019-02-11T15:10:55.854Z,23.10
2019-02-11T15:13:25.262Z,22.70
2019-02-11T15:15:54.696Z,24.67
2019-02-11T15:18:24.121Z,28.07
2019-02-11T15:20:53.569Z,23.07
2019-02-11T15:23:22.926Z,27.07
2019-02-11T15:25:52.348Z,26.13
2019-02-11T15:28:21.739Z,24.17
2019-02-11T15:30:51.062Z,24.03
2019-02-11T15:33:20.461Z,26.07
2019-02-11T15:35:49.883Z,20.60
2019-02-11T15:38:19.199Z,5.20
2019-02-11T15:40:48.504Z,6.47
2019-02-11T15:43:17.978Z,8.37
2019-02-11T15:45:47.450Z,12.53
2019-02-11T15:48:16.860Z,13.83
2019-02-11T15:50:46.261Z,4.23
2019-02-11T15:53:15.657Z,7.83
2019-02-11T15:55:45.042Z,7.13
2019-02-11T15:58:14.408Z,4.20
2019-02-11T16:00:43.808Z,8.60
2019-02-11T16:03:13.158Z,4.47
2019-02-11T16:05:49.524Z,5.47
2019-02-11T16:08:13.586Z,7.90
2019-02-11T16:10:42.941Z,5.17
2019-02-11T16:13:12.403Z,6.47
2019-02-11T16:15:41.733Z,6.90
2019-02-11T16:18:11.132Z,6.70
2019-02-11T16:20:40.559Z,8.00
2019-02-11T16:23:09.972Z,13.23
2019-02-11T16:25:39.363Z,15.63
2019-02-11T16:28:08.725Z,17.30
2019-02-11T16:30:38.081Z,20.37
2019-02-11T16:33:07.396Z,22.07
2019-02-11T16:35:36.895Z,24.30
2019-02-11T16:38:06.346Z,25.53
2019-02-11T16:40:35.821Z,24.50
2019-02-11T16:43:05.244Z,29.67
2019-02-11T16:45:34.738Z,28.13
2019-02-11T16:48:04.250Z,25.40
2019-02-11T16:50:33.649Z,30.60
2019-02-11T16:53:03.125Z,27.53
2019-02-11T16:55:32.490Z,27.90
2019-02-11T16:58:01.953Z,28.50
2019-02-11T17:00:31.256Z,33.27
2019-02-11T17:03:00.648Z,32.87
2019-02-11T17:05:30.054Z,31.03
2019-02-11T17:07:59.406Z,31.80
2019-02-11T17:10:28.877Z,29.33
2019-02-11T17:12:58.319Z,36.40
2019-02-11T17:15:27.719Z,43.07
2019-02-11T17:17:57.190Z,34.93
2019-02-11T17:20:26.576Z,30.03
2019-02-11T17:22:55.998Z,26.73
2019-02-11T17:25:25.469Z,22.63
2019-02-11T17:27:54.889Z,25.83
2019-02-11T17:30:25.784Z,24.87
2019-02-11T17:32:55.278Z,25.00
2019-02-11T17:35:24.723Z,26.10
2019-02-11T17:37:54.158Z,26.63
2019-02-11T17:40:23.553Z,28.40
2019-02-11T17:42:53.034Z,28.23
2019-02-11T17:45:24.228Z,29.07
2019-02-11T17:47:53.687Z,25.90
2019-02-11T17:50:23.105Z,27.00
2019-02-11T17:52:53.175Z,25.47
2019-02-11T17:55:22.744Z,23.63
2019-02-11T17:57:53.627Z,22.20
2019-02-11T18:00:31.009Z,27.00
2019-02-11T18:03:00.393Z,26.13
2019-02-11T18:05:29.765Z,22.03
2019-02-11T18:07:59.114Z,22.40
2019-02-11T18:10:28.524Z,26.03
2019-02-11T18:12:58.238Z,29.13
2019-02-11T18:15:27.596Z,31.47
2019-02-11T18:17:57.007Z,28.47
2019-02-11T18:20:26.373Z,23.60
2019-02-11T18:22:55.746Z,25.73
2019-02-11T18:25:25.602Z,25.70
2019-02-11T18:27:54.961Z,27.63
2019-02-11T18:30:24.355Z,27.23
2019-02-11T18:32:53.814Z,26.43
2019-02-11T18:35:23.234Z,28.67
2019-02-11T18:37:52.638Z,28.63
2019-02-11T18:40:21.949Z,27.57
2019-02-11T18:42:52.625Z,22.93
2019-02-11T18:45:22.060Z,24.07
2019-02-11T18:47:51.439Z,21.47
2019-02-11T18:50:20.782Z,19.97
2019-02-11T18:52:50.254Z,18.17
2019-02-11T18:55:19.842Z,18.53
2019-02-11T18:57:49.210Z,20.17
2019-02-11T19:00:19.240Z,26.20
2019-02-11T19:02:49.670Z,27.93
2019-02-11T19:05:19.395Z,25.07
2019-02-11T19:07:48.831Z,25.93
2019-02-11T19:10:18.518Z,24.13
2019-02-11T19:12:47.853Z,24.00
2019-02-11T19:15:17.340Z,27.80
2019-02-11T19:17:47.088Z,27.37
2019-02-11T19:20:17.026Z,25.90
2019-02-11T19:22:46.409Z,27.13
2019-02-11T19:25:15.843Z,27.00
2019-02-11T19:27:45.238Z,26.70
2019-02-11T19:30:17.617Z,21.83
2019-02-11T19:32:47.689Z,26.80
2019-02-11T19:35:17.171Z,23.07
2019-02-11T19:37:46.485Z,25.93
2019-02-11T19:40:16.092Z,23.80
2019-02-11T19:42:45.442Z,30.03
2019-02-11T19:45:16.392Z,28.73
2019-02-11T19:47:46.169Z,23.60
2019-02-11T19:50:16.425Z,26.50
2019-02-11T19:52:47.007Z,25.10
2019-02-11T19:55:16.418Z,30.27
2019-02-11T19:57:45.796Z,24.20
2019-02-11T20:00:19.891Z,24.43
2019-02-11T20:02:49.893Z,23.70
2019-02-11T20:05:19.374Z,19.73
2019-02-11T20:07:48.707Z,19.73
2019-02-11T20:10:18.485Z,21.13
2019-02-11T20:12:48.086Z,22.40
2019-02-11T20:15:19.127Z,18.47
2019-02-11T20:17:48.544Z,19.63
2019-02-11T20:20:19.781Z,16.00
2019-02-11T20:22:49.863Z,19.13
2019-02-11T20:25:19.635Z,20.60
2019-02-11T20:27:48.995Z,24.40
2019-02-11T20:30:20.780Z,22.33
2019-02-11T20:32:50.131Z,23.63
2019-02-11T20:35:19.587Z,23.27
2019-02-11T20:37:49.342Z,20.57
2019-02-11T20:40:22.703Z,21.17
2019-02-11T20:42:52.244Z,17.63
2019-02-11T20:45:24.063Z,18.00
2019-02-11T20:47:53.511Z,18.40
2019-02-11T20:50:22.891Z,19.53
2019-02-11T20:52:52.297Z,19.40
2019-02-11T20:55:21.693Z,20.70
2019-02-11T20:57:54.603Z,21.30
2019-02-11T21:00:24.329Z,21.87
2019-02-11T21:02:53.765Z,21.00
2019-02-11T21:05:23.338Z,21.37
2019-02-11T21:07:52.733Z,20.57
2019-02-11T21:10:22.190Z,21.47
2019-02-11T21:12:51.590Z,20.00
2019-02-11T21:15:20.920Z,17.80
2019-02-11T21:17:50.325Z,21.07
2019-02-11T21:20:31.106Z,22.20
2019-02-11T21:23:00.565Z,20.30
2019-02-11T21:25:29.936Z,19.80
2019-02-11T21:27:59.576Z,19.73
2019-02-11T21:30:28.898Z,20.23
2019-02-11T21:32:58.333Z,20.37
2019-02-11T21:35:27.730Z,19.53
2019-02-11T21:37:57.077Z,21.80
2019-02-11T21:40:26.479Z,13.20
2019-02-11T21:42:55.889Z,10.03
2019-02-11T21:45:25.250Z,7.40
2019-02-11T21:47:54.598Z,8.00
2019-02-11T21:50:26.818Z,8.23
2019-02-11T21:52:55.125Z,5.50
2019-02-11T21:55:24.521Z,4.17
2019-02-11T21:57:54.077Z,2.90
2019-02-11T22:00:23.686Z,4.20
2019-02-11T22:02:53.097Z,4.17
2019-02-11T22:05:22.573Z,3.97
2019-02-11T22:07:52.025Z,3.97
2019-02-11T22:10:21.499Z,3.47
2019-02-11T22:12:50.969Z,3.10
2019-02-11T22:15:20.533Z,2.07
2019-02-11T22:17:50.013Z,1.87
2019-02-11T22:20:19.634Z,1.70
2019-02-11T22:22:49.263Z,1.70
2019-02-11T22:25:18.616Z,1.77
2019-02-11T22:27:48.041Z,1.43
2019-02-11T22:30:19.499Z,1.50
2019-02-11T22:32:48.945Z,1.77
2019-02-11T22:35:18.323Z,2.10
2019-02-11T22:37:48.157Z,1.60
2019-02-11T22:40:17.669Z,1.40
2019-02-11T22:42:47.093Z,1.63
2019-02-11T22:45:18.352Z,1.60
2019-02-11T22:47:47.816Z,1.80
2019-02-11T22:50:17.142Z,1.70
2019-02-11T22:52:46.982Z,1.70
2019-02-11T22:55:16.441Z,1.80
2019-02-11T22:57:45.840Z,1.50
2019-02-11T23:00:49.130Z,1.50
2019-02-11T23:03:18.544Z,1.87
2019-02-11T23:05:48.052Z,2.23
2019-02-11T23:08:17.376Z,2.10
2019-02-11T23:10:47.186Z,2.00
2019-02-11T23:13:16.635Z,2.00
2019-02-11T23:15:46.047Z,2.40
2019-02-11T23:18:15.796Z,2.00
2019-02-11T23:20:51.725Z,2.20
2019-02-11T23:23:16.392Z,1.83
2019-02-11T23:25:45.868Z,1.90
2019-02-11T23:28:15.345Z,1.70
2019-02-11T23:30:44.681Z,1.70
2019-02-11T23:33:14.084Z,1.40
2019-02-11T23:35:43.539Z,1.40
2019-02-11T23:38:12.976Z,1.60
2019-02-11T23:40:42.450Z,1.63
2019-02-11T23:43:11.798Z,1.50
2019-02-11T23:45:41.172Z,1.50
2019-02-11T23:48:10.607Z,1.40
2019-02-11T23:50:40.012Z,1.30
2019-02-11T23:53:09.483Z,1.33
2019-02-11T23:55:38.874Z,1.27
2019-02-11T23:58:08.300Z,1.50
